sensor_id;sensor_type;location;lat;lon;timestamp;pressure;altitude;pressure_sealevel;temperature;humidity
2268;BME280;11052;43.338;25.502;2023-02-27T00:00:02;99828.91;;;15.61;93.85
2268;BME280;11052;43.338;25.502;2023-02-27T00:02:29;99833.13;;;15.64;94.23
2268;BME280;11052;43.338;25.502;2023-02-27T00:04:56;99833.53;;;15.72;94.09
2268;BME280;11052;43.338;25.502;2023-02-27T00:07:25;99843.03;;;15.73;94.17
2268;BME280;11052;43.338;25.502;2023-02-27T00:09:54;99844.53;;;15.77;94.03
2268;BME280;11052;43.338;25.502;2023-02-27T00:12:21;99843.34;;;15.83;93.74
2268;BME280;11052;43.338;25.502;2023-02-27T00:14:48;99839.25;;;15.93;93.44
2268;BME280;11052;43.338;25.502;2023-02-27T00:17:16;99843.75;;;15.91;93.50
2268;BME280;11052;43.338;25.502;2023-02-27T00:19:43;99842.06;;;16.04;92.01
2268;BME280;11052;43.338;25.502;2023-02-27T00:22:10;99845.63;;;16.03;92.57
2268;BME280;11052;43.338;25.502;2023-02-27T00:24:37;99840.56;;;16.00;92.53
2268;BME280;11052;43.338;25.502;2023-02-27T00:27:05;99837.41;;;15.95;93.34
2268;BME280;11052;43.338;25.502;2023-02-27T00:29:32;99842.72;;;15.93;94.17
2268;BME280;11052;43.338;25.502;2023-02-27T00:31:59;99849.06;;;15.89;94.24
2268;BME280;11052;43.338;25.502;2023-02-27T00:34:26;99845.31;;;15.93;94.16
2268;BME280;11052;43.338;25.502;2023-02-27T00:36:53;99841.50;;;15.99;94.48
2268;BME280;11052;43.338;25.502;2023-02-27T00:39:20;99838.91;;;15.99;94.25
2268;BME280;11052;43.338;25.502;2023-02-27T00:41:47;99825.72;;;16.00;94.09
2268;BME280;11052;43.338;25.502;2023-02-27T00:44:16;99818.25;;;15.94;95.02
2268;BME280;11052;43.338;25.502;2023-02-27T00:46:43;99821.22;;;15.88;95.26
2268;BME280;11052;43.338;25.502;2023-02-27T00:49:10;99828.41;;;15.85;95.70
2268;BME280;11052;43.338;25.502;2023-02-27T00:51:37;99835.72;;;15.94;95.27
2268;BME280;11052;43.338;25.502;2023-02-27T00:54:05;99841.59;;;15.97;94.76
2268;BME280;11052;43.338;25.502;2023-02-27T00:56:32;99818.91;;;15.98;94.84
2268;BME280;11052;43.338;25.502;2023-02-27T00:58:59;99819.28;;;15.92;95.50
2268;BME280;11052;43.338;25.502;2023-02-27T01:01:27;99823.66;;;15.91;95.54
2268;BME280;11052;43.338;25.502;2023-02-27T01:03:54;99828.72;;;15.94;95.70
2268;BME280;11052;43.338;25.502;2023-02-27T01:06:22;99826.09;;;15.94;95.55
2268;BME280;11052;43.338;25.502;2023-02-27T01:08:49;99816.03;;;16.02;95.05
2268;BME280;11052;43.338;25.502;2023-02-27T01:11:16;99816.03;;;16.02;95.38
2268;BME280;11052;43.338;25.502;2023-02-27T01:13:43;99820.22;;;15.91;95.95
2268;BME280;11052;43.338;25.502;2023-02-27T01:16:13;99825.06;;;15.97;95.74
2268;BME280;11052;43.338;25.502;2023-02-27T01:18:42;99827.78;;;15.95;95.15
2268;BME280;11052;43.338;25.502;2023-02-27T01:21:09;99822.56;;;16.10;94.87
2268;BME280;11052;43.338;25.502;2023-02-27T01:23:36;99827.22;;;16.04;94.60
2268;BME280;11052;43.338;25.502;2023-02-27T01:26:03;99823.13;;;16.00;94.78
2268;BME280;11052;43.338;25.502;2023-02-27T01:31:26;99822.47;;;15.97;95.90
2268;BME280;11052;43.338;25.502;2023-02-27T01:33:54;99816.56;;;15.93;96.06
2268;BME280;11052;43.338;25.502;2023-02-27T01:36:22;99816.28;;;15.98;95.82
2268;BME280;11052;43.338;25.502;2023-02-27T01:38:49;99826.84;;;15.96;95.43
2268;BME280;11052;43.338;25.502;2023-02-27T01:41:16;99829.28;;;15.99;95.44
2268;BME280;11052;43.338;25.502;2023-02-27T01:43:54;99822.06;;;15.89;96.30
2268;BME280;11052;43.338;25.502;2023-02-27T01:46:22;99824.22;;;15.82;96.85
2268;BME280;11052;43.338;25.502;2023-02-27T01:48:50;99829.16;;;15.87;96.87
2268;BME280;11052;43.338;25.502;2023-02-27T01:51:30;99822.56;;;15.95;96.58
2268;BME280;11052;43.338;25.502;2023-02-27T01:53:58;99812.47;;;15.89;97.02
2268;BME280;11052;43.338;25.502;2023-02-27T01:56:29;99820.03;;;15.94;96.98
2268;BME280;11052;43.338;25.502;2023-02-27T01:58:59;99823.75;;;15.90;97.58
2268;BME280;11052;43.338;25.502;2023-02-27T02:01:28;99817.59;;;15.91;97.61
2268;BME280;11052;43.338;25.502;2023-02-27T02:03:59;99826.84;;;15.96;96.66
2268;BME280;11052;43.338;25.502;2023-02-27T02:06:33;99823.13;;;16.00;96.55
2268;BME280;11052;43.338;25.502;2023-02-27T02:09:03;99819.00;;;15.96;95.83
2268;BME280;11052;43.338;25.502;2023-02-27T02:11:31;99818.63;;;16.02;96.27
2268;BME280;11052;43.338;25.502;2023-02-27T02:13:59;99804.16;;;15.97;95.64
2268;BME280;11052;43.338;25.502;2023-02-27T02:16:53;99812.00;;;15.97;96.28
2268;BME280;11052;43.338;25.502;2023-02-27T02:20:00;99804.53;;;15.91;95.56
2268;BME280;11052;43.338;25.502;2023-02-27T02:26:07;99812.28;;;15.92;95.42
2268;BME280;11052;43.338;25.502;2023-02-27T02:32:20;99805.63;;;15.87;95.43
2268;BME280;11052;43.338;25.502;2023-02-27T02:38:26;99815.72;;;15.79;95.57
2268;BME280;11052;43.338;25.502;2023-02-27T02:41:02;99825.78;;;15.70;97.08
2268;BME280;11052;43.338;25.502;2023-02-27T02:43:39;99818.88;;;15.69;96.82
2268;BME280;11052;43.338;25.502;2023-02-27T02:46:13;99818.59;;;15.60;97.71
2268;BME280;11052;43.338;25.502;2023-02-27T02:48:46;99817.63;;;15.61;97.52
2268;BME280;11052;43.338;25.502;2023-02-27T02:51:19;99827.50;;;15.56;98.46
2268;BME280;11052;43.338;25.502;2023-02-27T02:53:51;99846.91;;;15.52;98.66
2268;BME280;11052;43.338;25.502;2023-02-27T02:56:25;99851.94;;;15.55;98.54
2268;BME280;11052;43.338;25.502;2023-02-27T02:58:58;99848.66;;;15.51;98.91
2268;BME280;11052;43.338;25.502;2023-02-27T03:01:30;99846.06;;;15.51;98.92
2268;BME280;11052;43.338;25.502;2023-02-27T03:04:05;99843.34;;;15.53;99.75
2268;BME280;11052;43.338;25.502;2023-02-27T03:06:36;99854.75;;;15.52;99.43
2268;BME280;11052;43.338;25.502;2023-02-27T03:09:09;99866.88;;;15.53;100.00
2268;BME280;11052;43.338;25.502;2023-02-27T03:11:40;99862.91;;;15.46;100.00
2268;BME280;11052;43.338;25.502;2023-02-27T03:14:13;99864.03;;;15.41;100.00
2268;BME280;11052;43.338;25.502;2023-02-27T03:16:43;99867.03;;;15.50;100.00
2268;BME280;11052;43.338;25.502;2023-02-27T03:19:14;99879.84;;;15.54;100.00
2268;BME280;11052;43.338;25.502;2023-02-27T03:21:47;99882.72;;;15.50;100.00
2268;BME280;11052;43.338;25.502;2023-02-27T03:24:23;99904.81;;;15.44;100.00
2268;BME280;11052;43.338;25.502;2023-02-27T03:26:54;99942.22;;;15.45;100.00
2268;BME280;11052;43.338;25.502;2023-02-27T03:29:28;99940.09;;;14.72;87.39
2268;BME280;11052;43.338;25.502;2023-02-27T03:31:59;99939.84;;;13.75;86.60
2268;BME280;11052;43.338;25.502;2023-02-27T03:34:31;99957.63;;;12.73;91.08
2268;BME280;11052;43.338;25.502;2023-02-27T03:37:02;99948.75;;;12.38;93.33
2268;BME280;11052;43.338;25.502;2023-02-27T03:39:38;99957.19;;;12.23;96.28
2268;BME280;11052;43.338;25.502;2023-02-27T03:42:17;99967.97;;;11.71;99.12
2268;BME280;11052;43.338;25.502;2023-02-27T03:44:54;99987.09;;;11.69;100.00
2268;BME280;11052;43.338;25.502;2023-02-27T03:47:24;99993.50;;;11.38;100.00
2268;BME280;11052;43.338;25.502;2023-02-27T03:49:51;100010.06;;;11.12;100.00
2268;BME280;11052;43.338;25.502;2023-02-27T03:52:20;100023.22;;;10.83;100.00
2268;BME280;11052;43.338;25.502;2023-02-27T03:54:54;100035.88;;;10.67;100.00
2268;BME280;11052;43.338;25.502;2023-02-27T03:57:24;100031.16;;;10.54;100.00
2268;BME280;11052;43.338;25.502;2023-02-27T03:59:52;100045.22;;;10.46;100.00
2268;BME280;11052;43.338;25.502;2023-02-27T04:02:19;100080.25;;;10.33;100.00
2268;BME280;11052;43.338;25.502;2023-02-27T04:04:47;100088.22;;;10.27;100.00
2268;BME280;11052;43.338;25.502;2023-02-27T04:07:19;100100.53;;;9.91;100.00
2268;BME280;11052;43.338;25.502;2023-02-27T04:10:11;100124.00;;;10.14;100.00
2268;BME280;11052;43.338;25.502;2023-02-27T04:13:10;100148.75;;;9.95;100.00
2268;BME280;11052;43.338;25.502;2023-02-27T04:15:57;100153.34;;;9.85;100.00
2268;BME280;11052;43.338;25.502;2023-02-27T04:18:39;100164.47;;;9.89;100.00
2268;BME280;11052;43.338;25.502;2023-02-27T04:21:17;100172.94;;;9.94;100.00
2268;BME280;11052;43.338;25.502;2023-02-27T04:23:52;100175.38;;;9.69;100.00
2268;BME280;11052;43.338;25.502;2023-02-27T04:26:28;100185.59;;;9.44;100.00
2268;BME280;11052;43.338;25.502;2023-02-27T04:29:04;100194.50;;;9.34;100.00
2268;BME280;11052;43.338;25.502;2023-02-27T04:31:40;100247.94;;;9.01;100.00
2268;BME280;11052;43.338;25.502;2023-02-27T04:34:14;100274.69;;;8.63;100.00
2268;BME280;11052;43.338;25.502;2023-02-27T04:36:46;100280.63;;;8.27;100.00
2268;BME280;11052;43.338;25.502;2023-02-27T04:39:19;100301.75;;;8.04;100.00
2268;BME280;11052;43.338;25.502;2023-02-27T04:41:53;100320.22;;;7.82;100.00
2268;BME280;11052;43.338;25.502;2023-02-27T04:44:24;100349.63;;;7.75;100.00
2268;BME280;11052;43.338;25.502;2023-02-27T04:46:53;100367.09;;;7.60;100.00
2268;BME280;11052;43.338;25.502;2023-02-27T04:49:24;100389.63;;;7.48;100.00
2268;BME280;11052;43.338;25.502;2023-02-27T04:51:55;100411.22;;;7.43;100.00
2268;BME280;11052;43.338;25.502;2023-02-27T04:54:28;100410.34;;;7.42;100.00
2268;BME280;11052;43.338;25.502;2023-02-27T04:57:01;100423.13;;;7.50;100.00
2268;BME280;11052;43.338;25.502;2023-02-27T04:59:33;100442.25;;;7.37;100.00
2268;BME280;11052;43.338;25.502;2023-02-27T05:02:05;100434.50;;;7.37;100.00
2268;BME280;11052;43.338;25.502;2023-02-27T05:04:37;100446.44;;;7.44;100.00
2268;BME280;11052;43.338;25.502;2023-02-27T05:07:07;100460.16;;;7.46;100.00
2268;BME280;11052;43.338;25.502;2023-02-27T05:09:40;100458.53;;;7.40;100.00
2268;BME280;11052;43.338;25.502;2023-02-27T05:12:15;100470.44;;;7.49;100.00
2268;BME280;11052;43.338;25.502;2023-02-27T05:14:49;100476.34;;;7.55;100.00
2268;BME280;11052;43.338;25.502;2023-02-27T05:17:19;100462.66;;;7.52;100.00
2268;BME280;11052;43.338;25.502;2023-02-27T05:19:48;100472.00;;;7.59;100.00
2268;BME280;11052;43.338;25.502;2023-02-27T05:22:23;100474.44;;;7.68;100.00
2268;BME280;11052;43.338;25.502;2023-02-27T05:24:59;100467.50;;;7.73;100.00
2268;BME280;11052;43.338;25.502;2023-02-27T05:27:35;100470.94;;;7.72;100.00
2268;BME280;11052;43.338;25.502;2023-02-27T05:30:09;100462.19;;;7.81;100.00
2268;BME280;11052;43.338;25.502;2023-02-27T05:32:41;100444.16;;;7.79;100.00
2268;BME280;11052;43.338;25.502;2023-02-27T05:35:15;100434.59;;;7.84;100.00
2268;BME280;11052;43.338;25.502;2023-02-27T05:37:47;100452.38;;;8.01;100.00
2268;BME280;11052;43.338;25.502;2023-02-27T05:40:19;100457.44;;;8.07;100.00
2268;BME280;11052;43.338;25.502;2023-02-27T05:42:56;100476.97;;;8.22;100.00
2268;BME280;11052;43.338;25.502;2023-02-27T05:45:28;100479.50;;;8.25;100.00
2268;BME280;11052;43.338;25.502;2023-02-27T05:48:00;100488.91;;;8.29;100.00
2268;BME280;11052;43.338;25.502;2023-02-27T05:50:30;100506.03;;;8.36;100.00
2268;BME280;11052;43.338;25.502;2023-02-27T05:53:01;100518.84;;;8.41;100.00
2268;BME280;11052;43.338;25.502;2023-02-27T05:55:32;100521.66;;;8.27;100.00
2268;BME280;11052;43.338;25.502;2023-02-27T05:58:06;100530.97;;;8.37;100.00
2268;BME280;11052;43.338;25.502;2023-02-27T06:00:36;100547.47;;;8.27;100.00
2268;BME280;11052;43.338;25.502;2023-02-27T06:03:04;100558.72;;;8.23;100.00
2268;BME280;11052;43.338;25.502;2023-02-27T06:05:32;100566.56;;;8.17;100.00
2268;BME280;11052;43.338;25.502;2023-02-27T06:07:59;100562.25;;;8.17;100.00
2268;BME280;11052;43.338;25.502;2023-02-27T06:10:26;100585.44;;;8.22;100.00
2268;BME280;11052;43.338;25.502;2023-02-27T06:12:53;100591.41;;;8.26;100.00
2268;BME280;11052;43.338;25.502;2023-02-27T06:15:22;100605.41;;;8.09;100.00
2268;BME280;11052;43.338;25.502;2023-02-27T06:17:49;100599.41;;;8.09;100.00
2268;BME280;11052;43.338;25.502;2023-02-27T06:20:17;100603.78;;;8.04;100.00
2268;BME280;11052;43.338;25.502;2023-02-27T06:22:44;100623.53;;;8.06;100.00
2268;BME280;11052;43.338;25.502;2023-02-27T06:25:11;100634.66;;;8.11;100.00
2268;BME280;11052;43.338;25.502;2023-02-27T06:27:38;100654.31;;;8.21;100.00
2268;BME280;11052;43.338;25.502;2023-02-27T06:30:06;100663.81;;;8.18;100.00
2268;BME280;11052;43.338;25.502;2023-02-27T06:32:35;100670.63;;;8.23;100.00
2268;BME280;11052;43.338;25.502;2023-02-27T06:35:03;100662.94;;;8.19;100.00
2268;BME280;11052;43.338;25.502;2023-02-27T06:37:30;100657.69;;;8.25;100.00
2268;BME280;11052;43.338;25.502;2023-02-27T06:39:57;100653.22;;;8.39;100.00
2268;BME280;11052;43.338;25.502;2023-02-27T06:42:25;100660.50;;;8.67;100.00
2268;BME280;11052;43.338;25.502;2023-02-27T06:44:52;100654.66;;;8.57;100.00
2268;BME280;11052;43.338;25.502;2023-02-27T06:47:19;100654.59;;;8.60;100.00
2268;BME280;11052;43.338;25.502;2023-02-27T06:49:48;100654.66;;;8.56;100.00
2268;BME280;11052;43.338;25.502;2023-02-27T06:52:15;100659.81;;;8.57;100.00
2268;BME280;11052;43.338;25.502;2023-02-27T06:54:42;100667.56;;;8.57;100.00
2268;BME280;11052;43.338;25.502;2023-02-27T06:57:09;100666.78;;;8.52;100.00
2268;BME280;11052;43.338;25.502;2023-02-27T06:59:36;100667.03;;;8.37;100.00
2268;BME280;11052;43.338;25.502;2023-02-27T07:02:03;100670.50;;;8.31;100.00
2268;BME280;11052;43.338;25.502;2023-02-27T07:04:30;100671.38;;;8.30;100.00
2268;BME280;11052;43.338;25.502;2023-02-27T07:06:59;100661.13;;;8.26;100.00
2268;BME280;11052;43.338;25.502;2023-02-27T07:09:26;100665.31;;;8.36;100.00
2268;BME280;11052;43.338;25.502;2023-02-27T07:11:53;100665.28;;;8.39;100.00
2268;BME280;11052;43.338;25.502;2023-02-27T07:14:20;100660.88;;;8.44;100.00
2268;BME280;11052;43.338;25.502;2023-02-27T07:16:47;100654.78;;;8.48;100.00
2268;BME280;11052;43.338;25.502;2023-02-27T07:19:19;100658.19;;;8.51;100.00
2268;BME280;11052;43.338;25.502;2023-02-27T07:21:46;100660.06;;;8.42;100.00
2268;BME280;11052;43.338;25.502;2023-02-27T07:24:14;100674.78;;;8.37;100.00
2268;BME280;11052;43.338;25.502;2023-02-27T07:26:41;100669.50;;;8.43;100.00
2268;BME280;11052;43.338;25.502;2023-02-27T07:29:08;100667.81;;;8.42;100.00
2268;BME280;11052;43.338;25.502;2023-02-27T07:31:36;100671.19;;;8.47;100.00
2268;BME280;11052;43.338;25.502;2023-02-27T07:34:03;100684.03;;;8.51;100.00
2268;BME280;11052;43.338;25.502;2023-02-27T07:36:34;100693.44;;;8.56;100.00
2268;BME280;11052;43.338;25.502;2023-02-27T07:39:01;100689.72;;;8.70;100.00
2268;BME280;11052;43.338;25.502;2023-02-27T07:41:31;100691.59;;;8.64;100.00
2268;BME280;11052;43.338;25.502;2023-02-27T07:43:58;100700.91;;;8.71;100.00
2268;BME280;11052;43.338;25.502;2023-02-27T07:46:26;100700.78;;;8.78;100.00
2268;BME280;11052;43.338;25.502;2023-02-27T07:48:53;100687.13;;;8.72;100.00
2268;BME280;11052;43.338;25.502;2023-02-27T07:51:20;100698.13;;;8.83;100.00
2268;BME280;11052;43.338;25.502;2023-02-27T07:53:47;100702.41;;;8.84;100.00
2268;BME280;11052;43.338;25.502;2023-02-27T07:56:14;100735.84;;;8.96;100.00
2268;BME280;11052;43.338;25.502;2023-02-27T07:58:43;100743.50;;;9.01;100.00
2268;BME280;11052;43.338;25.502;2023-02-27T08:01:10;100738.31;;;9.02;100.00
2268;BME280;11052;43.338;25.502;2023-02-27T08:03:37;100748.41;;;9.17;100.00
2268;BME280;11052;43.338;25.502;2023-02-27T08:06:05;100755.16;;;9.26;100.00
2268;BME280;11052;43.338;25.502;2023-02-27T08:08:32;100771.63;;;9.20;100.00
2268;BME280;11052;43.338;25.502;2023-02-27T08:11:00;100776.91;;;9.14;100.00
2268;BME280;11052;43.338;25.502;2023-02-27T08:13:27;100768.00;;;9.32;100.00
2268;BME280;11052;43.338;25.502;2023-02-27T08:15:56;100774.47;;;9.54;100.00
2268;BME280;11052;43.338;25.502;2023-02-27T08:18:23;100769.41;;;9.50;100.00
2268;BME280;11052;43.338;25.502;2023-02-27T08:20:50;100779.47;;;9.64;100.00
2268;BME280;11052;43.338;25.502;2023-02-27T08:23:17;100772.50;;;9.67;100.00
2268;BME280;11052;43.338;25.502;2023-02-27T08:25:44;100764.91;;;10.03;100.00
2268;BME280;11052;43.338;25.502;2023-02-27T08:28:11;100764.72;;;10.12;100.00
2268;BME280;11052;43.338;25.502;2023-02-27T08:30:38;100762.94;;;10.14;100.00
2268;BME280;11052;43.338;25.502;2023-02-27T08:33:07;100781.13;;;10.12;100.00
2268;BME280;11052;43.338;25.502;2023-02-27T08:35:34;100791.66;;;10.03;100.00
2268;BME280;11052;43.338;25.502;2023-02-27T08:38:02;100791.72;;;10.00;100.00
2268;BME280;11052;43.338;25.502;2023-02-27T08:40:29;100796.81;;;10.05;100.00
2268;BME280;11052;43.338;25.502;2023-02-27T08:42:56;100792.09;;;10.27;100.00
2268;BME280;11052;43.338;25.502;2023-02-27T08:45:23;100791.63;;;10.46;100.00
2268;BME280;11052;43.338;25.502;2023-02-27T08:47:50;100796.50;;;10.60;100.00
2268;BME280;11052;43.338;25.502;2023-02-27T08:50:19;100793.84;;;10.63;100.00
2268;BME280;11052;43.338;25.502;2023-02-27T08:52:46;100809.25;;;10.71;100.00
2268;BME280;11052;43.338;25.502;2023-02-27T08:55:14;100819.91;;;10.57;100.00
2268;BME280;11052;43.338;25.502;2023-02-27T08:57:41;100812.28;;;10.49;100.00
2268;BME280;11052;43.338;25.502;2023-02-27T09:00:09;100817.91;;;10.70;100.00
2268;BME280;11052;43.338;25.502;2023-02-27T09:02:39;100840.63;;;10.59;100.00
2268;BME280;11052;43.338;25.502;2023-02-27T09:05:07;100839.06;;;10.50;100.00
2268;BME280;11052;43.338;25.502;2023-02-27T09:07:35;100839.88;;;10.52;100.00
2268;BME280;11052;43.338;25.502;2023-02-27T09:10:03;100839.91;;;10.50;100.00
2268;BME280;11052;43.338;25.502;2023-02-27T09:12:31;100846.50;;;10.67;100.00
2268;BME280;11052;43.338;25.502;2023-02-27T09:14:59;100841.88;;;10.79;100.00
2268;BME280;11052;43.338;25.502;2023-02-27T09:17:26;100836.59;;;10.84;100.00
2268;BME280;11052;43.338;25.502;2023-02-27T09:19:53;100837.19;;;10.97;100.00
2268;BME280;11052;43.338;25.502;2023-02-27T09:22:20;100852.91;;;10.89;100.00
2268;BME280;11052;43.338;25.502;2023-02-27T09:24:52;100849.38;;;10.93;100.00
2268;BME280;11052;43.338;25.502;2023-02-27T09:27:19;100853.69;;;10.93;100.00
2268;BME280;11052;43.338;25.502;2023-02-27T09:29:46;100859.94;;;10.84;100.00
2268;BME280;11052;43.338;25.502;2023-02-27T09:32:13;100851.94;;;10.95;100.00
2268;BME280;11052;43.338;25.502;2023-02-27T09:34:40;100864.06;;;10.93;100.00
2268;BME280;11052;43.338;25.502;2023-02-27T09:37:08;100861.44;;;10.94;100.00
2268;BME280;11052;43.338;25.502;2023-02-27T09:39:35;100869.97;;;10.99;100.00
2268;BME280;11052;43.338;25.502;2023-02-27T09:42:05;100867.69;;;11.24;100.00
2268;BME280;11052;43.338;25.502;2023-02-27T09:44:38;100864.59;;;11.42;100.00
2268;BME280;11052;43.338;25.502;2023-02-27T09:47:13;100852.66;;;11.71;100.00
2268;BME280;11052;43.338;25.502;2023-02-27T09:49:49;100865.91;;;11.94;100.00
2268;BME280;11052;43.338;25.502;2023-02-27T09:52:17;100860.34;;;12.08;100.00
2268;BME280;11052;43.338;25.502;2023-02-27T09:54:45;100869.22;;;12.30;100.00
2268;BME280;11052;43.338;25.502;2023-02-27T09:57:16;100866.97;;;12.49;100.00
2268;BME280;11052;43.338;25.502;2023-02-27T09:59:49;100860.25;;;12.71;100.00
2268;BME280;11052;43.338;25.502;2023-02-27T10:02:28;100864.00;;;12.91;100.00
2268;BME280;11052;43.338;25.502;2023-02-27T10:05:02;100869.91;;;12.96;100.00
2268;BME280;11052;43.338;25.502;2023-02-27T10:07:38;100878.56;;;12.96;100.00
2268;BME280;11052;43.338;25.502;2023-02-27T10:10:14;100869.56;;;12.78;100.00
2268;BME280;11052;43.338;25.502;2023-02-27T10:12:56;100872.81;;;12.87;100.00
2268;BME280;11052;43.338;25.502;2023-02-27T10:15:28;100868.34;;;13.18;100.00
2268;BME280;11052;43.338;25.502;2023-02-27T10:17:59;100864.25;;;13.37;100.00
2268;BME280;11052;43.338;25.502;2023-02-27T10:20:31;100863.97;;;13.47;100.00
2268;BME280;11052;43.338;25.502;2023-02-27T10:23:02;100872.63;;;13.73;100.00
2268;BME280;11052;43.338;25.502;2023-02-27T10:25:32;100876.06;;;13.99;100.00
2268;BME280;11052;43.338;25.502;2023-02-27T10:28:14;100879.72;;;14.18;100.00
2268;BME280;11052;43.338;25.502;2023-02-27T10:30:43;100883.44;;;14.11;100.00
2268;BME280;11052;43.338;25.502;2023-02-27T10:33:20;100881.84;;;14.07;100.00
2268;BME280;11052;43.338;25.502;2023-02-27T10:35:48;100889.41;;;14.15;100.00
2268;BME280;11052;43.338;25.502;2023-02-27T10:38:23;100879.50;;;13.99;100.00
2268;BME280;11052;43.338;25.502;2023-02-27T10:40:54;100876.97;;;13.98;100.00
2268;BME280;11052;43.338;25.502;2023-02-27T10:43:24;100865.66;;;14.22;100.00
2268;BME280;11052;43.338;25.502;2023-02-27T10:45:52;100868.53;;;14.39;100.00
2268;BME280;11052;43.338;25.502;2023-02-27T10:48:19;100865.97;;;14.38;100.00
2268;BME280;11052;43.338;25.502;2023-02-27T10:50:48;100868.56;;;14.38;100.00
2268;BME280;11052;43.338;25.502;2023-02-27T10:53:19;100874.59;;;14.40;100.00
2268;BME280;11052;43.338;25.502;2023-02-27T10:55:57;100877.59;;;14.29;100.00
2268;BME280;11052;43.338;25.502;2023-02-27T10:58:28;100869.66;;;14.32;100.00
2268;BME280;11052;43.338;25.502;2023-02-27T11:00:59;100876.16;;;14.46;100.00
2268;BME280;11052;43.338;25.502;2023-02-27T11:03:28;100863.13;;;14.46;100.00
2268;BME280;11052;43.338;25.502;2023-02-27T11:05:59;100860.84;;;14.60;100.00
2268;BME280;11052;43.338;25.502;2023-02-27T11:08:29;100862.50;;;14.84;100.00
2268;BME280;11052;43.338;25.502;2023-02-27T11:10:59;100848.91;;;15.20;100.00
2268;BME280;11052;43.338;25.502;2023-02-27T11:13:30;100852.19;;;15.25;100.00
2268;BME280;11052;43.338;25.502;2023-02-27T11:16:04;100857.47;;;15.01;100.00
2268;BME280;11052;43.338;25.502;2023-02-27T11:18:32;100855.88;;;14.97;100.00
2268;BME280;11052;43.338;25.502;2023-02-27T11:21:12;100855.50;;;15.28;100.00
2268;BME280;11052;43.338;25.502;2023-02-27T11:23:49;100846.53;;;15.35;100.00
2268;BME280;11052;43.338;25.502;2023-02-27T11:26:21;100861.09;;;15.41;100.00
2268;BME280;11052;43.338;25.502;2023-02-27T11:29:13;100844.69;;;15.59;100.00
2268;BME280;11052;43.338;25.502;2023-02-27T11:31:50;100841.69;;;15.47;100.00
2268;BME280;11052;43.338;25.502;2023-02-27T11:34:21;100848.50;;;15.51;100.00
2268;BME280;11052;43.338;25.502;2023-02-27T11:36:51;100848.09;;;15.18;100.00
2268;BME280;11052;43.338;25.502;2023-02-27T11:39:25;100847.09;;;15.00;100.00
2268;BME280;11052;43.338;25.502;2023-02-27T11:41:54;100847.75;;;15.27;100.00
2268;BME280;11052;43.338;25.502;2023-02-27T11:44:26;100856.84;;;15.38;100.00
2268;BME280;11052;43.338;25.502;2023-02-27T11:47:11;100858.78;;;15.33;100.00
2268;BME280;11052;43.338;25.502;2023-02-27T11:49:54;100859.66;;;15.34;100.00
2268;BME280;11052;43.338;25.502;2023-02-27T11:52:28;100861.22;;;15.38;100.00
2268;BME280;11052;43.338;25.502;2023-02-27T11:55:01;100860.19;;;15.42;100.00
2268;BME280;11052;43.338;25.502;2023-02-27T11:57:32;100868.41;;;15.33;100.00
2268;BME280;11052;43.338;25.502;2023-02-27T12:00:06;100862.50;;;15.28;100.00
2268;BME280;11052;43.338;25.502;2023-02-27T12:02:45;100871.59;;;15.39;100.00
2268;BME280;11052;43.338;25.502;2023-02-27T12:05:16;100870.81;;;15.59;100.00
2268;BME280;11052;43.338;25.502;2023-02-27T12:07:47;100869.34;;;15.52;100.00
2268;BME280;11052;43.338;25.502;2023-02-27T12:10:19;100861.13;;;15.61;100.00
2268;BME280;11052;43.338;25.502;2023-02-27T12:12:49;100882.72;;;15.45;100.00
2268;BME280;11052;43.338;25.502;2023-02-27T12:15:27;100876.41;;;15.28;100.00
2268;BME280;11052;43.338;25.502;2023-02-27T12:18:04;100873.06;;;15.03;100.00
2268;BME280;11052;43.338;25.502;2023-02-27T12:20:35;100868.28;;;15.14;100.00
2268;BME280;11052;43.338;25.502;2023-02-27T12:23:14;100874.09;;;15.21;100.00
2268;BME280;11052;43.338;25.502;2023-02-27T12:25:46;100888.38;;;15.12;100.00
2268;BME280;11052;43.338;25.502;2023-02-27T12:28:25;100889.34;;;15.31;100.00
2268;BME280;11052;43.338;25.502;2023-02-27T12:31:07;100889.03;;;15.39;100.00
2268;BME280;11052;43.338;25.502;2023-02-27T12:33:42;100884.19;;;15.08;100.00
2268;BME280;11052;43.338;25.502;2023-02-27T12:36:12;100890.13;;;15.12;100.00
2268;BME280;11052;43.338;25.502;2023-02-27T12:38:40;100883.34;;;15.29;100.00
2268;BME280;11052;43.338;25.502;2023-02-27T12:41:32;100885.59;;;15.38;100.00
2268;BME280;11052;43.338;25.502;2023-02-27T12:44:15;100884.78;;;15.36;100.00
2268;BME280;11052;43.338;25.502;2023-02-27T12:46:50;100887.84;;;15.26;100.00
2268;BME280;11052;43.338;25.502;2023-02-27T12:49:27;100887.97;;;15.23;100.00
2268;BME280;11052;43.338;25.502;2023-02-27T12:52:08;100884.78;;;15.15;100.00
2268;BME280;11052;43.338;25.502;2023-02-27T12:54:46;100880.41;;;14.93;100.00
2268;BME280;11052;43.338;25.502;2023-02-27T12:57:26;100878.72;;;14.92;100.00
2268;BME280;11052;43.338;25.502;2023-02-27T13:00:06;100887.59;;;15.10;100.00
2268;BME280;11052;43.338;25.502;2023-02-27T13:02:51;100895.69;;;14.81;100.00
2268;BME280;11052;43.338;25.502;2023-02-27T13:05:41;100899.19;;;14.58;100.00
2268;BME280;11052;43.338;25.502;2023-02-27T13:08:32;100899.94;;;14.36;100.00
2268;BME280;11052;43.338;25.502;2023-02-27T13:11:10;100896.84;;;14.50;100.00
2268;BME280;11052;43.338;25.502;2023-02-27T13:13:50;100899.47;;;14.50;100.00
2268;BME280;11052;43.338;25.502;2023-02-27T13:16:25;100895.25;;;14.46;100.00
2268;BME280;11052;43.338;25.502;2023-02-27T13:18:58;100894.41;;;14.21;100.00
2268;BME280;11052;43.338;25.502;2023-02-27T13:21:33;100893.88;;;14.36;100.00